| time (UTC) | temp F | wind direction | speed MPH | gust MPH | rain 1hr in | rain 24hr in | rain mn in | humidity % | barometer mb |
| 20260507224624 | 60 | 346 | 1.0 | 1.0 | 0.00 | 0.00 | 0.00 | 38 | 1015.1 |
| 20260507224121 | 61 | 12 | 4.0 | 5.0 | 0.00 | 0.00 | 0.00 | 37 | 1015.1 |
| 20260507223617 | 61 | 12 | 3.0 | 5.0 | 0.00 | 0.00 | 0.00 | 38 | 1015.1 |
| 20260507223114 | 61 | 319 | 3.0 | 5.0 | 0.00 | 0.00 | 0.00 | 38 | 1015.0 |
| 20260507222611 | 61 | 303 | 2.0 | 3.0 | 0.00 | 0.00 | 0.00 | 40 | 1015.1 |
| 20260507222108 | 61 | 346 | 5.0 | 6.0 | 0.00 | 0.00 | 0.00 | 37 | 1015.0 |
| 20260507221603 | 62 | 7 | 2.0 | 5.0 | 0.00 | 0.00 | 0.00 | 38 | 1014.8 |
| 20260507221101 | 61 | 292 | 2.0 | 2.0 | 0.00 | 0.00 | 0.00 | 39 | 1015.2 |
| 20260507220558 | 63 | 326 | 3.0 | 3.0 | 0.00 | 0.00 | 0.00 | 37 | 1015.3 |
| 20260507220055 | 62 | 33 | 2.0 | 3.0 | 0.00 | 0.00 | 0.00 | 37 | 1015.4 |
| 20260507215551 | 63 | 349 | 4.0 | 5.0 | 0.00 | 0.00 | 0.00 | 35 | 1015.3 |
| 20260507215049 | 62 | 350 | 1.0 | 1.0 | 0.00 | 0.00 | 0.00 | 39 | 1015.2 |
| 20260507214546 | 61 | 320 | 2.0 | 2.0 | 0.00 | 0.00 | 0.00 | 39 | 1015.2 |
| 20260507214042 | 62 | 319 | 3.0 | 3.0 | 0.00 | 0.00 | 0.00 | 38 | 1015.4 |
| 20260507213538 | 63 | 323 | 1.0 | 2.0 | 0.00 | 0.00 | 0.00 | 37 | 1015.2 |
| 20260507213036 | 63 | 9 | 4.0 | 5.0 | 0.00 | 0.00 | 0.00 | 35 | 1015.2 |
| 20260507212531 | 63 | 0 | 1.0 | 1.0 | 0.00 | 0.00 | 0.00 | 39 | 1015.2 |
| 20260507212028 | 61 | 352 | 0.0 | 1.0 | 0.00 | 0.00 | 0.00 | 37 | 1015.0 |
| 20260507211525 | 61 | 9 | 3.0 | 3.0 | 0.00 | 0.00 | 0.00 | 39 | 1015.1 |
| 20260507211022 | 62 | 333 | 3.0 | 5.0 | 0.00 | 0.00 | 0.00 | 39 | 1015.2 |
| 20260507210519 | 62 | 335 | 8.0 | 11.0 | 0.00 | 0.00 | 0.00 | 38 | 1015.2 |
| 20260507210015 | 61 | 352 | 1.0 | 1.0 | 0.00 | 0.00 | 0.00 | 38 | 1015.1 |
| 20260507205512 | 62 | 355 | 3.0 | 7.0 | 0.00 | 0.00 | 0.00 | 42 | 1015.0 |
| 20260507205008 | 61 | 7 | 4.0 | 6.0 | 0.00 | 0.00 | 0.00 | 40 | 1015.1 |
| 20260507204505 | 62 | 347 | 3.0 | 3.0 | 0.00 | 0.00 | 0.00 | 41 | 1015.0 |
| 20260507204003 | 63 | 334 | 2.0 | 3.0 | 0.00 | 0.00 | 0.00 | 39 | 1015.2 |
| 20260507203500 | 61 | 272 | 4.0 | 5.0 | 0.00 | 0.00 | 0.00 | 40 | 1015.1 |
| 20260507202956 | 60 | 348 | 5.0 | 6.0 | 0.00 | 0.00 | 0.00 | 41 | 1015.2 |
| 20260507202453 | 61 | 6 | 9.0 | 13.0 | 0.00 | 0.00 | 0.00 | 41 | 1014.9 |
| 20260507201949 | 61 | 345 | 4.0 | 5.0 | 0.00 | 0.00 | 0.00 | 41 | 1015.2 |
| 20260507201444 | 61 | 355 | 7.0 | 8.0 | 0.00 | 0.00 | 0.00 | 41 | 1015.1 |
| 20260507200941 | 60 | 355 | 3.0 | 5.0 | 0.00 | 0.00 | 0.00 | 40 | 1015.3 |
| 20260507200437 | 62 | 338 | 5.0 | 7.0 | 0.00 | 0.00 | 0.00 | 39 | 1015.2 |
| 20260507195933 | 60 | 354 | 1.0 | 2.0 | 0.00 | 0.00 | 0.00 | 40 | 1015.3 |
| 20260507195431 | 60 | 7 | 8.0 | 10.0 | 0.00 | 0.00 | 0.00 | 40 | 1015.1 |
| 20260507194928 | 60 | 273 | 6.0 | 10.0 | 0.00 | 0.00 | 0.00 | 39 | 1015.3 |
| 20260507194425 | 60 | 309 | 4.0 | 6.0 | 0.00 | 0.00 | 0.00 | 43 | 1015.2 |
| 20260507193920 | 61 | 342 | 6.0 | 8.0 | 0.00 | 0.00 | 0.00 | 44 | 1015.3 |
| 20260507193418 | 62 | 13 | 4.0 | 6.0 | 0.00 | 0.00 | 0.00 | 41 | 1015.3 |
| 20260507192914 | 60 | 334 | 5.0 | 6.0 | 0.00 | 0.00 | 0.00 | 39 | 1015.3 |
| 20260507192410 | 60 | 341 | 1.0 | 1.0 | 0.00 | 0.00 | 0.00 | 41 | 1015.5 |
| 20260507191907 | 60 | 10 | 5.0 | 8.0 | 0.00 | 0.00 | 0.00 | 42 | 1015.4 |
| 20260507191403 | 61 | 16 | 3.0 | 3.0 | 0.00 | 0.00 | 0.00 | 37 | 1015.6 |
| 20260507190900 | 61 | 358 | 3.0 | 8.0 | 0.00 | 0.00 | 0.00 | 42 | 1015.6 |
| 20260507190358 | 60 | 335 | 7.0 | 9.0 | 0.00 | 0.00 | 0.00 | 40 | 1015.6 |
| 20260507185857 | 60 | 298 | 8.0 | 9.0 | 0.00 | 0.00 | 0.00 | 36 | 1015.3 |
| 20260507185354 | 61 | 294 | 7.0 | 11.0 | 0.00 | 0.00 | 0.00 | 37 | 1015.6 |
| 20260507184850 | 61 | 341 | 1.0 | 1.0 | 0.00 | 0.00 | 0.00 | 42 | 1015.5 |
| 20260507184348 | 59 | 14 | 4.0 | 5.0 | 0.00 | 0.00 | 0.00 | 39 | 1015.7 |
| 20260507183845 | 61 | 343 | 5.0 | 6.0 | 0.00 | 0.00 | 0.00 | 40 | 1015.4 |
| 20260507183342 | 60 | 17 | 7.0 | 10.0 | 0.00 | 0.00 | 0.00 | 38 | 1015.6 |
| 20260507182840 | 59 | 341 | 1.0 | 2.0 | 0.00 | 0.00 | 0.00 | 37 | 1015.5 |
| 20260507182335 | 61 | 319 | 3.0 | 3.0 | 0.00 | 0.00 | 0.00 | 40 | 1015.7 |
| 20260507181832 | 60 | 304 | 5.0 | 6.0 | 0.00 | 0.00 | 0.00 | 38 | 1015.6 |
| 20260507181327 | 59 | 29 | 8.0 | 9.0 | 0.00 | 0.00 | 0.00 | 41 | 1015.7 |
| 20260507180825 | 59 | 18 | 6.0 | 10.0 | 0.00 | 0.00 | 0.00 | 44 | 1015.7 |
| 20260507180322 | 59 | 316 | 5.0 | 8.0 | 0.00 | 0.00 | 0.00 | 37 | 1015.9 |
| 20260507175817 | 59 | 281 | 9.0 | 11.0 | 0.00 | 0.00 | 0.00 | 42 | 1016.0 |
| 20260507175314 | 58 | 341 | 3.0 | 3.0 | 0.00 | 0.00 | 0.00 | 44 | 1016.1 |
| 20260507174812 | 60 | 13 | 9.0 | 10.0 | 0.00 | 0.00 | 0.00 | 43 | 1016.3 |
| 20260507174309 | 60 | 331 | 6.0 | 9.0 | 0.00 | 0.00 | 0.00 | 36 | 1016.3 |
| 20260507173807 | 60 | 359 | 2.0 | 2.0 | 0.00 | 0.00 | 0.00 | 41 | 1016.2 |
| 20260507173303 | 59 | 352 | 3.0 | 5.0 | 0.00 | 0.00 | 0.00 | 43 | 1016.2 |
| 20260507172800 | 60 | 9 | 1.0 | 2.0 | 0.00 | 0.00 | 0.00 | 46 | 1016.3 |
| 20260507172257 | 60 | 270 | 2.0 | 2.0 | 0.00 | 0.00 | 0.00 | 39 | 1016.3 |
| 20260507171752 | 59 | 1 | 2.0 | 2.0 | 0.00 | 0.00 | 0.00 | 45 | 1016.4 |
| 20260507171249 | 60 | 359 | 1.0 | 3.0 | 0.00 | 0.00 | 0.00 | 44 | 1016.3 |
| 20260507170746 | 59 | 54 | 2.0 | 2.0 | 0.00 | 0.00 | 0.00 | 42 | 1016.5 |
| 20260507170243 | 58 | 337 | 13.0 | 16.0 | 0.00 | 0.00 | 0.00 | 39 | 1016.7 |
| 20260507165738 | 59 | 337 | 4.0 | 5.0 | 0.00 | 0.00 | 0.00 | 39 | 1016.7 |
| 20260507165235 | 59 | 300 | 2.0 | 3.0 | 0.00 | 0.00 | 0.00 | 43 | 1016.5 |
| 20260507164731 | 58 | 14 | 6.0 | 8.0 | 0.00 | 0.00 | 0.00 | 42 | 1016.6 |
| 20260507164228 | 58 | 318 | 3.0 | 3.0 | 0.00 | 0.00 | 0.00 | 40 | 1017.0 |
| 20260507163725 | 58 | 315 | 3.0 | 5.0 | 0.00 | 0.00 | 0.00 | 38 | 1016.9 |
| 20260507163224 | 58 | 347 | 1.0 | 2.0 | 0.00 | 0.00 | 0.00 | 44 | 1017.0 |
| 20260507162719 | 58 | 256 | 3.0 | 3.0 | 0.00 | 0.00 | 0.00 | 42 | 1016.6 |
| 20260507162215 | 58 | 339 | 3.0 | 5.0 | 0.00 | 0.00 | 0.00 | 40 | 1016.8 |
| 20260507161712 | 58 | 36 | 4.0 | 6.0 | 0.00 | 0.00 | 0.00 | 43 | 1016.9 |
| 20260507161209 | 58 | 322 | 5.0 | 7.0 | 0.00 | 0.00 | 0.00 | 44 | 1016.8 |
| 20260507160704 | 57 | 321 | 3.0 | 3.0 | 0.00 | 0.00 | 0.00 | 41 | 1017.0 |
| 20260507160201 | 57 | 318 | 1.0 | 2.0 | 0.00 | 0.00 | 0.00 | 45 | 1017.0 |
| 20260507155657 | 58 | 5 | 3.0 | 5.0 | 0.00 | 0.00 | 0.00 | 44 | 1017.0 |
| 20260507155153 | 57 | 305 | 5.0 | 9.0 | 0.00 | 0.00 | 0.00 | 44 | 1017.0 |
| 20260507154650 | 58 | 321 | 5.0 | 7.0 | 0.00 | 0.00 | 0.00 | 44 | 1016.7 |
| 20260507154148 | 57 | 219 | 4.0 | 5.0 | 0.00 | 0.00 | 0.00 | 43 | 1016.8 |
| 20260507153644 | 57 | 312 | 3.0 | 3.0 | 0.00 | 0.00 | 0.00 | 44 | 1016.8 |
| 20260507153140 | 57 | 2 | 3.0 | 3.0 | 0.00 | 0.00 | 0.00 | 40 | 1016.7 |
| 20260507152637 | 56 | 313 | 2.0 | 2.0 | 0.00 | 0.00 | 0.00 | 45 | 1016.6 |
| 20260507152133 | 57 | 348 | 2.0 | 2.0 | 0.00 | 0.00 | 0.00 | 43 | 1016.8 |
| 20260507151629 | 56 | 341 | 1.0 | 2.0 | 0.00 | 0.00 | 0.00 | 41 | 1016.7 |
| 20260507151126 | 55 | 339 | 6.0 | 7.0 | 0.00 | 0.00 | 0.00 | 40 | 1016.7 |
| 20260507150623 | 55 | 9 | 6.0 | 9.0 | 0.00 | 0.00 | 0.00 | 44 | 1016.7 |
| 20260507150120 | 55 | 341 | 6.0 | 7.0 | 0.00 | 0.00 | 0.00 | 42 | 1016.5 |
| 20260507145615 | 55 | 329 | 5.0 | 6.0 | 0.00 | 0.00 | 0.00 | 43 | 1016.7 |
| 20260507145113 | 54 | 351 | 3.0 | 3.0 | 0.00 | 0.00 | 0.00 | 44 | 1016.9 |
| 20260507144613 | 54 | 9 | 3.0 | 5.0 | 0.00 | 0.00 | 0.00 | 45 | 1016.7 |
| 20260507144112 | 54 | 318 | 5.0 | 6.0 | 0.00 | 0.00 | 0.00 | 45 | 1016.7 |
| 20260507143608 | 54 | 25 | 5.0 | 7.0 | 0.00 | 0.00 | 0.00 | 47 | 1016.7 |
| 20260507143106 | 55 | 14 | 6.0 | 9.0 | 0.00 | 0.00 | 0.00 | 46 | 1016.9 |
| 20260507142601 | 54 | 311 | 2.0 | 3.0 | 0.00 | 0.00 | 0.00 | 46 | 1016.9 |
| 20260507142058 | 53 | 2 | 5.0 | 7.0 | 0.00 | 0.00 | 0.00 | 45 | 1016.9 |
| 20260507141554 | 53 | 358 | 2.0 | 3.0 | 0.00 | 0.00 | 0.00 | 49 | 1016.9 |
| 20260507141051 | 53 | 338 | 6.0 | 8.0 | 0.00 | 0.00 | 0.00 | 50 | 1016.9 |
| 20260507140548 | 53 | 306 | 4.0 | 5.0 | 0.00 | 0.00 | 0.00 | 47 | 1016.8 |
| 20260507140045 | 52 | 327 | 4.0 | 5.0 | 0.00 | 0.00 | 0.00 | 52 | 1016.9 |
| 20260507135542 | 52 | 337 | 7.0 | 10.0 | 0.00 | 0.00 | 0.00 | 50 | 1017.0 |
| 20260507135039 | 52 | 338 | 3.0 | 3.0 | 0.00 | 0.00 | 0.00 | 50 | 1017.0 |
| 20260507134536 | 52 | 335 | 3.0 | 5.0 | 0.00 | 0.00 | 0.00 | 53 | 1016.6 |
| 20260507134031 | 51 | 329 | 3.0 | 3.0 | 0.00 | 0.00 | 0.00 | 55 | 1017.0 |
| 20260507133528 | 52 | 25 | 3.0 | 6.0 | 0.00 | 0.00 | 0.00 | 61 | 1016.8 |
| 20260507133026 | 52 | 334 | 1.0 | 1.0 | 0.00 | 0.00 | 0.00 | 60 | 1017.2 |
| 20260507132522 | 51 | 342 | 2.0 | 2.0 | 0.00 | 0.00 | 0.00 | 61 | 1016.8 |
| 20260507132019 | 51 | 348 | 3.0 | 5.0 | 0.00 | 0.00 | 0.00 | 61 | 1017.0 |
| 20260507131516 | 50 | 348 | 1.0 | 2.0 | 0.00 | 0.00 | 0.00 | 62 | 1016.9 |
| 20260507131013 | 50 | 359 | 4.0 | 5.0 | 0.00 | 0.00 | 0.00 | 64 | 1016.9 |
| 20260507130510 | 50 | 5 | 3.0 | 5.0 | 0.00 | 0.00 | 0.00 | 65 | 1016.7 |
| 20260507130008 | 49 | 348 | 3.0 | 5.0 | 0.00 | 0.00 | 0.00 | 65 | 1016.9 |
| 20260507125506 | 49 | 4 | 1.0 | 2.0 | 0.00 | 0.00 | 0.00 | 67 | 1016.8 |
| 20260507125003 | 48 | 2 | 1.0 | 2.0 | 0.00 | 0.00 | 0.00 | 70 | 1017.0 |
| 20260507124459 | 48 | 7 | 3.0 | 5.0 | 0.00 | 0.00 | 0.00 | 71 | 1017.1 |
| 20260507123957 | 48 | 14 | 3.0 | 5.0 | 0.00 | 0.00 | 0.00 | 75 | 1016.9 |
| 20260507123455 | 47 | 330 | 2.0 | 2.0 | 0.00 | 0.00 | 0.00 | 79 | 1017.4 |
| 20260507122951 | 46 | 312 | 2.0 | 3.0 | 0.00 | 0.00 | 0.00 | 84 | 1017.1 |
| 20260507122447 | 45 | 17 | 1.0 | 2.0 | 0.00 | 0.00 | 0.00 | 90 | 1017.1 |
| 20260507121943 | 45 | 336 | 2.0 | 3.0 | 0.00 | 0.00 | 0.00 | 94 | 1017.2 |
| 20260507121438 | 44 | 355 | 2.0 | 2.0 | 0.00 | 0.00 | 0.00 | 96 | 1017.2 |
| 20260507120935 | 44 | 355 | 5.0 | 5.0 | 0.00 | 0.00 | 0.00 | 97 | 1017.0 |
| 20260507120431 | 43 | 4 | 2.0 | 2.0 | 0.00 | 0.00 | 0.00 | 98 | 1017.1 |
| 20260507115928 | 43 | 0 | 1.0 | 2.0 | 0.00 | 0.00 | 0.00 | 99 | 1017.1 |
| 20260507115424 | 42 | 345 | 1.0 | 1.0 | 0.00 | 0.00 | 0.00 | 99 | 1016.9 |
| 20260507114920 | 42 | 17 | 3.0 | 5.0 | 0.00 | 0.00 | 0.00 | 99 | 1017.1 |
| 20260507114417 | 42 | 7 | 2.0 | 2.0 | 0.00 | 0.00 | 0.00 | 99 | 1016.9 |
| 20260507113914 | 41 | 8 | 0.0 | 0.0 | 0.00 | 0.00 | 0.00 | 99 | 1017.0 |
| 20260507113411 | 41 | 354 | 1.0 | 1.0 | 0.00 | 0.00 | 0.00 | 99 | 1017.1 |
| 20260507112908 | 40 | 357 | 0.0 | 1.0 | 0.00 | 0.00 | 0.00 | 99 | 1017.3 |
| 20260507112406 | 39 | 358 | 0.0 | 0.0 | 0.00 | 0.00 | 0.00 | 99 | 1017.0 |
| 20260507111904 | 39 | 357 | 0.0 | 1.0 | 0.00 | 0.00 | 0.00 | 99 | 1016.8 |
| 20260507111400 | 39 | 356 | 0.0 | 0.0 | 0.00 | 0.00 | 0.00 | 99 | 1016.8 |
| 20260507110856 | 38 | 353 | 0.0 | 0.0 | 0.00 | 0.00 | 0.00 | 99 | 1016.8 |
| 20260507110352 | 38 | 356 | 0.0 | 0.0 | 0.00 | 0.00 | 0.00 | 99 | 1016.4 |
| 20260507105849 | 38 | 356 | 0.0 | 0.0 | 0.00 | 0.00 | 0.00 | 99 | 1016.6 |
| 20260507105346 | 38 | 356 | 0.0 | 0.0 | 0.00 | 0.00 | 0.00 | 99 | 1016.7 |
| 20260507104843 | 38 | 359 | 0.0 | 0.0 | 0.00 | 0.00 | 0.00 | 99 | 1016.3 |
| 20260507104339 | 38 | 0 | 0.0 | 0.0 | 0.00 | 0.00 | 0.00 | 99 | 1016.3 |
| 20260507103835 | 38 | 356 | 0.0 | 0.0 | 0.00 | 0.00 | 0.00 | 99 | 1016.4 |
| 20260507103332 | 38 | 357 | 0.0 | 0.0 | 0.00 | 0.00 | 0.00 | 99 | 1016.2 |
| 20260507102828 | 38 | 359 | 0.0 | 0.0 | 0.00 | 0.00 | 0.00 | 99 | 1016.4 |
| 20260507102325 | 38 | 355 | 0.0 | 0.0 | 0.00 | 0.00 | 0.00 | 99 | 1016.3 |
| 20260507101821 | 38 | 359 | 0.0 | 0.0 | 0.00 | 0.00 | 0.00 | 99 | 1016.5 |
| 20260507101316 | 38 | 357 | 0.0 | 0.0 | 0.00 | 0.00 | 0.00 | 99 | 1016.5 |
| 20260507100813 | 38 | 358 | 0.0 | 0.0 | 0.00 | 0.00 | 0.00 | 99 | 1016.4 |
| 20260507100311 | 38 | 354 | 0.0 | 0.0 | 0.00 | 0.00 | 0.00 | 99 | 1016.5 |
| 20260507095809 | 38 | 359 | 0.0 | 0.0 | 0.00 | 0.00 | 0.00 | 99 | 1016.4 |
| 20260507095306 | 38 | 354 | 0.0 | 0.0 | 0.00 | 0.00 | 0.00 | 99 | 1016.3 |
| 20260507094802 | 38 | 357 | 0.0 | 0.0 | 0.00 | 0.00 | 0.00 | 99 | 1016.2 |
| 20260507094259 | 39 | 353 | 0.0 | 0.0 | 0.00 | 0.00 | 0.00 | 99 | 1016.5 |
| 20260507093756 | 39 | 358 | 0.0 | 0.0 | 0.00 | 0.00 | 0.00 | 99 | 1016.3 |
| 20260507093255 | 39 | 356 | 0.0 | 0.0 | 0.00 | 0.00 | 0.00 | 99 | 1016.2 |
| 20260507092752 | 39 | 354 | 0.0 | 0.0 | 0.00 | 0.00 | 0.00 | 99 | 1016.0 |
| 20260507092248 | 39 | 357 | 0.0 | 0.0 | 0.00 | 0.00 | 0.00 | 99 | 1016.1 |
| 20260507091745 | 38 | 354 | 0.0 | 0.0 | 0.00 | 0.00 | 0.00 | 99 | 1016.2 |
| 20260507091241 | 38 | 351 | 0.0 | 0.0 | 0.00 | 0.00 | 0.00 | 99 | 1016.1 |
| 20260507090736 | 38 | 355 | 0.0 | 0.0 | 0.00 | 0.00 | 0.00 | 99 | 1016.2 |
| 20260507090233 | 39 | 355 | 0.0 | 0.0 | 0.00 | 0.00 | 0.00 | 99 | 1016.0 |
| 20260507085731 | 38 | 359 | 0.0 | 0.0 | 0.00 | 0.00 | 0.00 | 99 | 1016.3 |
| 20260507085227 | 38 | 355 | 0.0 | 0.0 | 0.00 | 0.00 | 0.00 | 99 | 1016.0 |
| 20260507084725 | 38 | 355 | 0.0 | 0.0 | 0.00 | 0.00 | 0.00 | 99 | 1015.8 |
| 20260507084221 | 38 | 355 | 0.0 | 0.0 | 0.00 | 0.00 | 0.00 | 99 | 1015.8 |
| 20260507083719 | 39 | 355 | 0.0 | 0.0 | 0.00 | 0.00 | 0.00 | 99 | 1015.9 |
| 20260507083215 | 38 | 355 | 0.0 | 0.0 | 0.00 | 0.00 | 0.00 | 99 | 1015.9 |
| 20260507082711 | 39 | 355 | 0.0 | 0.0 | 0.00 | 0.00 | 0.00 | 99 | 1015.8 |
| 20260507082207 | 39 | 355 | 0.0 | 0.0 | 0.00 | 0.00 | 0.00 | 99 | 1015.9 |
| 20260507081704 | 39 | 355 | 0.0 | 0.0 | 0.00 | 0.00 | 0.00 | 99 | 1015.7 |
| 20260507081200 | 39 | 355 | 0.0 | 0.0 | 0.00 | 0.00 | 0.00 | 99 | 1015.9 |
| 20260507080657 | 39 | 355 | 0.0 | 0.0 | 0.00 | 0.00 | 0.00 | 99 | 1015.8 |
| 20260507080153 | 37 | 355 | 0.0 | 0.0 | 0.00 | 0.00 | 0.00 | 99 | 1015.8 |
| 20260507075648 | 38 | 355 | 0.0 | 0.0 | 0.00 | 0.00 | 0.00 | 99 | 1015.7 |
| 20260507075145 | 39 | 355 | 0.0 | 0.0 | 0.00 | 0.00 | 0.00 | 99 | 1015.8 |
| 20260507074641 | 39 | 355 | 0.0 | 0.0 | 0.00 | 0.00 | 0.00 | 99 | 1015.8 |
| 20260507074140 | 40 | 355 | 0.0 | 0.0 | 0.00 | 0.00 | 0.00 | 99 | 1015.7 |
| 20260507073636 | 40 | 355 | 0.0 | 0.0 | 0.00 | 0.00 | 0.00 | 99 | 1015.6 |
| 20260507073132 | 39 | 355 | 0.0 | 0.0 | 0.00 | 0.00 | 0.00 | 99 | 1015.6 |
| 20260507072630 | 40 | 355 | 0.0 | 0.0 | 0.00 | 0.00 | 0.00 | 99 | 1015.8 |
| 20260507072127 | 40 | 356 | 0.0 | 0.0 | 0.00 | 0.00 | 0.00 | 99 | 1015.7 |
| 20260507071625 | 40 | 355 | 0.0 | 0.0 | 0.00 | 0.00 | 0.00 | 99 | 1015.8 |
| 20260507071121 | 39 | 355 | 0.0 | 0.0 | 0.00 | 0.00 | 0.00 | 99 | 1015.8 |
| 20260507070618 | 39 | 355 | 0.0 | 0.0 | 0.00 | 0.00 | 0.00 | 98 | 1015.8 |
| 20260507070115 | 39 | 355 | 0.0 | 0.0 | 0.00 | 0.00 | 0.00 | 98 | 1015.8 |
| 20260507065611 | 39 | 355 | 0.0 | 0.0 | 0.00 | 0.00 | 0.00 | 98 | 1016.0 |
| 20260507065108 | 39 | 355 | 0.0 | 0.0 | 0.00 | 0.00 | 0.00 | 99 | 1015.8 |
| 20260507064606 | 39 | 355 | 0.0 | 0.0 | 0.00 | 0.00 | 0.00 | 98 | 1015.8 |
| 20260507064104 | 40 | 355 | 0.0 | 0.0 | 0.00 | 0.00 | 0.00 | 99 | 1015.8 |
| 20260507063601 | 39 | 355 | 0.0 | 0.0 | 0.00 | 0.00 | 0.00 | 98 | 1015.8 |
| 20260507063059 | 39 | 355 | 0.0 | 0.0 | 0.00 | 0.00 | 0.00 | 98 | 1016.0 |
| 20260507062555 | 40 | 355 | 0.0 | 0.0 | 0.00 | 0.00 | 0.00 | 98 | 1016.0 |
| 20260507062053 | 40 | 355 | 0.0 | 0.0 | 0.00 | 0.00 | 0.00 | 98 | 1016.0 |
| 20260507061550 | 41 | 354 | 0.0 | 0.0 | 0.00 | 0.00 | 0.00 | 98 | 1015.9 |
| 20260507061048 | 41 | 1 | 0.0 | 0.0 | 0.00 | 0.00 | 0.00 | 98 | 1015.9 |
| 20260507060546 | 41 | 358 | 0.0 | 0.0 | 0.00 | 0.00 | 0.00 | 98 | 1015.6 |
| 20260507060042 | 41 | 358 | 0.0 | 0.0 | 0.00 | 0.00 | 0.00 | 98 | 1016.0 |
| 20260507055542 | 41 | 356 | 0.0 | 0.0 | 0.00 | 0.00 | 0.00 | 98 | 1015.9 |
| 20260507055039 | 41 | 355 | 0.0 | 0.0 | 0.00 | 0.00 | 0.00 | 98 | 1015.6 |
| 20260507054535 | 40 | 357 | 0.0 | 0.0 | 0.00 | 0.00 | 0.00 | 98 | 1015.9 |
| 20260507054032 | 41 | 357 | 0.0 | 0.0 | 0.00 | 0.00 | 0.00 | 97 | 1016.0 |
| 20260507053530 | 41 | 359 | 0.0 | 0.0 | 0.00 | 0.00 | 0.00 | 97 | 1016.0 |
| 20260507053029 | 41 | 355 | 0.0 | 0.0 | 0.00 | 0.00 | 0.00 | 98 | 1016.1 |
| 20260507052526 | 41 | 355 | 0.0 | 0.0 | 0.00 | 0.00 | 0.00 | 97 | 1016.0 |
| 20260507052022 | 41 | 355 | 0.0 | 0.0 | 0.00 | 0.00 | 0.00 | 97 | 1015.9 |
| 20260507051520 | 41 | 355 | 0.0 | 0.0 | 0.00 | 0.00 | 0.00 | 97 | 1016.0 |
| 20260507051017 | 41 | 355 | 0.0 | 0.0 | 0.00 | 0.00 | 0.00 | 97 | 1015.7 |
| 20260507050513 | 41 | 355 | 0.0 | 0.0 | 0.00 | 0.00 | 0.00 | 97 | 1015.9 |
| 20260507050010 | 41 | 354 | 0.0 | 0.0 | 0.00 | 0.00 | 0.00 | 97 | 1015.9 |
| 20260507045507 | 42 | 354 | 0.0 | 0.0 | 0.00 | 0.00 | 0.00 | 97 | 1016.3 |
| 20260507045004 | 42 | 357 | 0.0 | 0.0 | 0.00 | 0.00 | 0.00 | 96 | 1016.1 |
| 20260507044501 | 42 | 357 | 0.0 | 0.0 | 0.00 | 0.00 | 0.00 | 96 | 1016.2 |
| 20260507043957 | 42 | 359 | 0.0 | 0.0 | 0.00 | 0.00 | 0.00 | 96 | 1016.2 |
| 20260507043453 | 42 | 359 | 0.0 | 0.0 | 0.00 | 0.00 | 0.00 | 96 | 1016.2 |
| 20260507042949 | 42 | 0 | 0.0 | 0.0 | 0.00 | 0.00 | 0.00 | 96 | 1016.2 |
| 20260507042446 | 42 | 354 | 0.0 | 0.0 | 0.00 | 0.00 | 0.00 | 95 | 1016.3 |
| 20260507041942 | 43 | 354 | 0.0 | 0.0 | 0.00 | 0.00 | 0.00 | 95 | 1016.1 |
| 20260507041439 | 42 | 354 | 0.0 | 0.0 | 0.00 | 0.00 | 0.00 | 95 | 1016.2 |
| 20260507040936 | 42 | 354 | 0.0 | 0.0 | 0.00 | 0.00 | 0.00 | 95 | 1016.1 |
| 20260507040432 | 42 | 354 | 0.0 | 0.0 | 0.00 | 0.00 | 0.00 | 95 | 1016.2 |
| 20260507035928 | 43 | 354 | 0.0 | 0.0 | 0.00 | 0.59 | 0.59 | 95 | 1015.9 |
| 20260507035425 | 43 | 353 | 0.0 | 0.0 | 0.00 | 0.59 | 0.59 | 95 | 1016.1 |
| 20260507034921 | 43 | 355 | 0.0 | 0.0 | 0.00 | 0.59 | 0.59 | 94 | 1015.7 |
| 20260507034418 | 43 | 355 | 0.0 | 0.0 | 0.00 | 0.59 | 0.59 | 94 | 1015.9 |
| 20260507033916 | 43 | 354 | 0.0 | 0.0 | 0.00 | 0.59 | 0.59 | 94 | 1016.2 |
| 20260507033414 | 44 | 354 | 0.0 | 0.0 | 0.00 | 0.59 | 0.59 | 94 | 1015.8 |
| 20260507032911 | 44 | 355 | 0.0 | 0.0 | 0.00 | 0.59 | 0.59 | 94 | 1016.0 |
| 20260507032408 | 44 | 355 | 0.0 | 0.0 | 0.00 | 0.59 | 0.59 | 93 | 1015.9 |
| 20260507031904 | 43 | 355 | 0.0 | 0.0 | 0.00 | 0.59 | 0.59 | 93 | 1016.2 |
| 20260507031400 | 44 | 355 | 0.0 | 0.0 | 0.00 | 0.59 | 0.59 | 93 | 1016.0 |
| 20260507030857 | 44 | 355 | 0.0 | 0.0 | 0.00 | 0.59 | 0.59 | 92 | 1016.0 |
| 20260507030354 | 44 | 355 | 0.0 | 0.0 | 0.00 | 0.59 | 0.59 | 92 | 1015.9 |
| 20260507025851 | 44 | 355 | 0.0 | 0.0 | 0.00 | 0.59 | 0.59 | 92 | 1016.1 |
| 20260507025349 | 45 | 355 | 0.0 | 0.0 | 0.00 | 0.59 | 0.59 | 91 | 1016.1 |
| 20260507024846 | 45 | 355 | 0.0 | 0.0 | 0.00 | 0.59 | 0.59 | 91 | 1015.9 |
| 20260507024343 | 46 | 354 | 0.0 | 0.0 | 0.00 | 0.59 | 0.59 | 90 | 1015.8 |
| 20260507023839 | 46 | 355 | 0.0 | 0.0 | 0.00 | 0.59 | 0.59 | 90 | 1015.9 |
| 20260507023336 | 46 | 355 | 0.0 | 0.0 | 0.00 | 0.59 | 0.59 | 90 | 1015.8 |
| 20260507022834 | 46 | 355 | 0.0 | 0.0 | 0.00 | 0.59 | 0.59 | 89 | 1015.8 |
| 20260507022330 | 47 | 355 | 0.0 | 0.0 | 0.00 | 0.59 | 0.59 | 88 | 1015.9 |
| 20260507021826 | 47 | 355 | 0.0 | 0.0 | 0.00 | 0.59 | 0.59 | 88 | 1015.7 |
| 20260507021321 | 48 | 354 | 0.0 | 0.0 | 0.00 | 0.59 | 0.59 | 87 | 1015.7 |
| 20260507020820 | 48 | 355 | 0.0 | 0.0 | 0.00 | 0.59 | 0.59 | 87 | 1015.7 |
| 20260507020316 | 48 | 355 | 0.0 | 0.0 | 0.00 | 0.59 | 0.59 | 86 | 1015.7 |
| 20260507015813 | 49 | 355 | 0.0 | 0.0 | 0.00 | 0.59 | 0.59 | 85 | 1015.6 |
| 20260507015311 | 49 | 355 | 0.0 | 0.0 | 0.00 | 0.59 | 0.59 | 85 | 1015.6 |
| 20260507014808 | 50 | 357 | 0.0 | 0.0 | 0.00 | 0.59 | 0.59 | 84 | 1015.4 |
| 20260507014304 | 50 | 355 | 0.0 | 0.0 | 0.00 | 0.59 | 0.59 | 83 | 1015.5 |
| 20260507013800 | 50 | 357 | 0.0 | 0.0 | 0.00 | 0.59 | 0.59 | 82 | 1015.6 |
| 20260507013258 | 51 | 357 | 0.0 | 0.0 | 0.00 | 0.59 | 0.59 | 82 | 1015.5 |
| 20260507012755 | 50 | 358 | 0.0 | 0.0 | 0.00 | 0.59 | 0.59 | 79 | 1015.4 |
| 20260507012250 | 51 | 358 | 0.0 | 0.0 | 0.00 | 0.59 | 0.59 | 78 | 1015.5 |
| 20260507011748 | 51 | 358 | 0.0 | 0.0 | 0.00 | 0.59 | 0.59 | 77 | 1015.3 |
| 20260507011245 | 51 | 357 | 0.0 | 0.0 | 0.00 | 0.59 | 0.59 | 76 | 1015.4 |
| 20260507010744 | 52 | 357 | 1.0 | 1.0 | 0.00 | 0.59 | 0.59 | 75 | 1015.1 |
| 20260507010240 | 53 | 359 | 0.0 | 0.0 | 0.00 | 0.59 | 0.59 | 73 | 1015.2 |
| 20260507005738 | 53 | 356 | 0.0 | 0.0 | 0.00 | 0.59 | 0.59 | 69 | 1015.3 |
| 20260507005234 | 54 | 352 | 0.0 | 1.0 | 0.00 | 0.59 | 0.59 | 67 | 1015.0 |
| 20260507004731 | 54 | 340 | 0.0 | 1.0 | 0.00 | 0.59 | 0.59 | 66 | 1015.0 |
| 20260507004229 | 55 | 350 | 2.0 | 3.0 | 0.00 | 0.59 | 0.59 | 65 | 1015.1 |
| 20260507003725 | 55 | 347 | 2.0 | 2.0 | 0.00 | 0.59 | 0.59 | 64 | 1015.0 |
| 20260507003220 | 55 | 319 | 4.0 | 6.0 | 0.00 | 0.59 | 0.59 | 63 | 1015.3 |
| 20260507002716 | 56 | 15 | 1.0 | 1.0 | 0.00 | 0.59 | 0.59 | 64 | 1015.0 |
| 20260507002213 | 56 | 355 | 0.0 | 0.0 | 0.00 | 0.59 | 0.59 | 64 | 1014.9 |
| 20260507001709 | 56 | 354 | 1.0 | 1.0 | 0.00 | 0.59 | 0.59 | 61 | 1014.7 |
| 20260507001207 | 57 | 344 | 0.0 | 1.0 | 0.00 | 0.59 | 0.59 | 61 | 1015.0 |
| 20260507000703 | 57 | 5 | 1.0 | 2.0 | 0.00 | 0.59 | 0.59 | 61 | 1014.7 |
| 20260507000159 | 57 | 19 | 1.0 | 2.0 | 0.00 | 0.59 | 0.59 | 61 | 1014.8 |
| 20260506235656 | 57 | 349 | 0.0 | 1.0 | 0.00 | 0.59 | 0.59 | 60 | 1014.8 |
| 20260506235151 | 57 | 343 | 3.0 | 3.0 | 0.00 | 0.59 | 0.59 | 58 | 1014.8 |
| 20260506234648 | 57 | 357 | 1.0 | 1.0 | 0.00 | 0.59 | 0.59 | 58 | 1014.7 |
| 20260506234145 | 58 | 0 | 1.0 | 2.0 | 0.00 | 0.59 | 0.59 | 58 | 1014.6 |
| 20260506233642 | 58 | 338 | 3.0 | 5.0 | 0.00 | 0.59 | 0.59 | 56 | 1014.2 |
| 20260506233139 | 58 | 359 | 3.0 | 3.0 | 0.00 | 0.59 | 0.59 | 57 | 1014.1 |
| 20260506232636 | 58 | 336 | 1.0 | 2.0 | 0.00 | 0.59 | 0.59 | 58 | 1014.2 |
| 20260506232131 | 58 | 348 | 3.0 | 3.0 | 0.00 | 0.59 | 0.59 | 57 | 1014.2 |
| 20260506231628 | 58 | 334 | 2.0 | 2.0 | 0.00 | 0.59 | 0.59 | 56 | 1014.2 |
| 20260506231127 | 58 | 13 | 3.0 | 5.0 | 0.00 | 0.59 | 0.59 | 56 | 1014.1 |
| 20260506230623 | 58 | 320 | 3.0 | 3.0 | 0.00 | 0.59 | 0.59 | 56 | 1014.2 |
| 20260506230120 | 58 | 2 | 2.0 | 2.0 | 0.00 | 0.59 | 0.59 | 56 | 1013.9 |
| 20260506225617 | 58 | 325 | 2.0 | 3.0 | 0.00 | 0.59 | 0.59 | 56 | 1013.8 |
| 20260506225113 | 58 | 328 | 3.0 | 3.0 | 0.00 | 0.59 | 0.59 | 56 | 1013.9 |